Startpagina
METAR-TAF:

METAR-TAF

Vliegvelden :

Luchthaven Mariehamn

Mariehamn, Finland

breedte: 60-07N, lengte: 019-54E, hoogte: 6 m

Actueel weer

Dit bericht is 33 minuten geleden gemaakt, om 20:50 UTC
Wind 3 kt uit het noorden
Temperatuur 10°C
Vochtigheid 93%
Druk 1013 hPa
Zicht 10 km of meer
geen wolken onder 1500 m en geen cumulonimbus

METAR: EFMA 182050Z AUTO 36003KT CAVOK 10/09 Q1013

Tijdstip: 00:23 (21:23 UTC)

Verwachting

Dit bericht is 54 minuten geleden gemaakt, om 20:29 UTC
Verwachting geldig van 18 om 21 UTC tot 19 om 06 UTC
Wind 2 kt uit variabele richting
Zicht 10 km of meer
geen wolken onder 1500 m en geen cumulonimbus
Kans 30% :
Tijdelijke
van 18 om 23 UTC tot 19 om 03 UTC
Zicht: 1200 m
mistbanken

TAF: EFMA 182029Z 1821/1906 VRB02KT CAVOK PROB30 TEMPO 1823/1903 1200 BCFG

Waarnemingen en weersverwachtingen van meer dan 4000 vliegvelden (METAR en TAF).

De beschikbare stations zijn de gele en rode punten op de kaart.

Ga met uw muis naar het station om de naam te zien.

Klik dan om waarnemingen en weersverwachtingen te zien.

kaart wijzigen: klik op de groene knoppen met een zwart kruis om in te zoomen, op de groene knop met een streepje om uit te zoomen of op de groene pijlen voor aangrenzende kaarten.


METAR-TAF: